Time;durP1;ratioP1;P1;durP2;ratioP2;P2;SDS_P1;SDS_P2;PMS_P1;PMS_P2;Temp;Humidity;BMP_temperature;BMP_pressure;BME280_temperature;BME280_humidity;BME280_pressure;Samples;Min_cycle;Max_cycle;Signal;HPM_P1;HPM_P2
2022/02/21 00:01:19;;;;;;;1.90;0.60;;;11.90;99.90;;;;;;5094690;28;20298;-60
2022/02/21 00:03:46;;;;;;;3.03;0.70;;;11.90;99.90;;;;;;5094519;28;20230;-60
2022/02/21 00:06:14;;;;;;;4.80;0.80;;;11.90;99.90;;;;;;5094878;28;20215;-60
2022/02/21 00:08:41;;;;;;;2.67;0.70;;;11.90;99.90;;;;;;5094412;28;20200;-61
2022/02/21 00:11:08;;;;;;;1.50;0.80;;;11.90;99.90;;;;;;5095229;28;20239;-61
2022/02/21 00:13:34;;;;;;;2.80;1.07;;;11.90;99.90;;;;;;5095045;28;20212;-61
2022/02/21 00:16:01;;;;;;;2.23;0.73;;;11.90;99.90;;;;;;5094387;28;20294;-59
2022/02/21 00:18:29;;;;;;;2.63;0.70;;;11.90;99.90;;;;;;5094057;28;20273;-60
2022/02/21 00:20:56;;;;;;;1.83;0.90;;;11.90;99.90;;;;;;5094064;28;20224;-60
2022/02/21 00:23:22;;;;;;;2.37;0.67;;;11.90;99.90;;;;;;5084129;28;20215;-62
2022/02/21 00:25:49;;;;;;;1.17;0.67;;;11.90;99.90;;;;;;5085351;28;20659;-62
2022/02/21 00:28:16;;;;;;;2.47;0.70;;;11.90;99.90;;;;;;5093503;28;20258;-62
2022/02/21 00:30:43;;;;;;;2.53;0.70;;;11.90;99.90;;;;;;5093348;28;20215;-60
2022/02/21 00:33:09;;;;;;;2.10;0.67;;;11.90;99.90;;;;;;5094822;28;20208;-61
2022/02/21 00:35:37;;;;;;;3.13;0.80;;;11.90;99.90;;;;;;5093527;28;20208;-65
2022/02/21 00:38:04;;;;;;;2.63;0.60;;;12.00;99.90;;;;;;5093370;28;20247;-62
2022/02/21 00:40:31;;;;;;;2.17;1.13;;;12.00;99.90;;;;;;5093351;28;20208;-63
2022/02/21 00:42:57;;;;;;;3.00;0.90;;;12.10;99.90;;;;;;5093239;28;20212;-69
2022/02/21 00:45:24;;;;;;;4.90;0.50;;;12.10;99.90;;;;;;5094240;28;20204;-58
2022/02/21 00:47:51;;;;;;;2.47;0.70;;;12.20;99.90;;;;;;5093551;28;20606;-58
2022/02/21 00:50:17;;;;;;;1.70;0.80;;;12.20;99.90;;;;;;5094042;28;20205;-59
2022/02/21 00:52:45;;;;;;;3.27;1.07;;;12.20;99.90;;;;;;5093491;28;20220;-58
2022/02/21 00:55:12;;;;;;;2.17;0.83;;;12.30;99.90;;;;;;5093820;28;20235;-59
2022/02/21 00:57:39;;;;;;;2.87;0.87;;;12.20;99.90;;;;;;5093808;28;20695;-58
2022/02/21 01:00:07;;;;;;;2.33;0.90;;;12.20;99.90;;;;;;5094243;28;20208;-58
2022/02/21 01:02:34;;;;;;;2.70;1.00;;;12.20;99.90;;;;;;5094317;28;20228;-59
2022/02/21 01:05:01;;;;;;;3.80;1.43;;;12.20;99.90;;;;;;5093709;28;20239;-58
2022/02/21 01:07:28;;;;;;;2.70;0.80;;;12.30;99.90;;;;;;5093659;28;20211;-58
2022/02/21 01:09:56;;;;;;;3.30;1.33;;;12.20;99.90;;;;;;5093678;28;20204;-58
2022/02/21 01:12:23;;;;;;;2.97;0.90;;;12.20;99.90;;;;;;5093513;28;20734;-58
2022/02/21 01:14:51;;;;;;;3.23;0.90;;;12.20;99.90;;;;;;5093335;28;20664;-58
2022/02/21 01:17:18;;;;;;;2.17;1.00;;;12.20;99.90;;;;;;5093101;28;20208;-58
2022/02/21 01:19:45;;;;;;;3.33;1.10;;;12.20;99.90;;;;;;5093878;28;20208;-58
2022/02/21 01:22:11;;;;;;;4.03;1.27;;;12.20;99.90;;;;;;5093078;28;20228;-58
2022/02/21 01:24:38;;;;;;;4.63;1.10;;;12.20;99.90;;;;;;5092906;28;20212;-58
2022/02/21 01:27:06;;;;;;;3.00;0.83;;;12.20;99.90;;;;;;5093018;28;20238;-58
2022/02/21 01:29:33;;;;;;;2.73;0.97;;;12.20;99.90;;;;;;5092994;28;20303;-58
2022/02/21 01:31:59;;;;;;;2.23;0.90;;;12.10;99.90;;;;;;5093062;28;20236;-58
2022/02/21 01:34:26;;;;;;;2.90;0.70;;;12.00;99.90;;;;;;5092921;28;20232;-58
2022/02/21 01:36:53;;;;;;;2.47;0.70;;;12.00;99.90;;;;;;5092708;28;20216;-58
2022/02/21 01:39:20;;;;;;;3.80;1.03;;;11.90;99.90;;;;;;5092660;28;20704;-58
2022/02/21 01:41:47;;;;;;;2.13;0.80;;;11.90;99.90;;;;;;5092607;28;20229;-58
2022/02/21 01:44:16;;;;;;;0.80;0.70;;;11.90;99.90;;;;;;5092914;28;20207;-58
2022/02/21 01:46:43;;;;;;;1.93;0.80;;;11.90;99.90;;;;;;5092465;28;20215;-58
2022/02/21 01:49:12;;;;;;;1.57;0.70;;;11.90;99.90;;;;;;5092693;28;20242;-58
2022/02/21 01:51:39;;;;;;;2.83;1.00;;;11.90;99.90;;;;;;5092356;28;20224;-59
2022/02/21 01:54:08;;;;;;;3.80;0.83;;;12.00;99.90;;;;;;5092315;28;20205;-58
2022/02/21 01:56:35;;;;;;;2.50;0.60;;;12.00;99.90;;;;;;5091982;28;20203;-58
2022/02/21 01:59:02;;;;;;;2.72;1.05;;;12.00;99.90;;;;;;5076186;28;20549;-61
2022/02/21 02:01:30;;;;;;;2.10;0.70;;;12.00;99.90;;;;;;5080219;28;20221;-61
2022/02/21 02:03:59;;;;;;;2.13;0.70;;;12.00;99.90;;;;;;5071715;28;20693;-60
2022/02/21 02:06:28;;;;;;;3.40;0.70;;;11.90;99.90;;;;;;5071828;28;20209;-61
2022/02/21 02:08:55;;;;;;;2.97;1.27;;;11.90;99.90;;;;;;5071868;28;20197;-61
2022/02/21 02:11:22;;;;;;;2.13;0.90;;;11.90;99.90;;;;;;5072056;28;20232;-62
2022/02/21 02:13:51;;;;;;;2.40;0.40;;;11.90;99.90;;;;;;5072305;28;20721;-62
2022/02/21 02:16:18;;;;;;;2.17;0.90;;;11.80;99.90;;;;;;5071303;28;20563;-62
2022/02/21 02:18:46;;;;;;;2.23;0.80;;;11.80;99.90;;;;;;5079495;28;20224;-61
2022/02/21 02:21:19;;;;;;;1.57;0.60;;;11.70;99.90;;;;;;5072061;28;20274;-62
2022/02/21 02:23:47;;;;;;;2.87;0.90;;;11.80;99.90;;;;;;5071845;28;20213;-60
2022/02/21 02:26:14;;;;;;;3.93;0.60;;;11.80;99.90;;;;;;5072191;28;20205;-60
2022/02/21 02:28:40;;;;;;;2.30;0.70;;;11.80;99.90;;;;;;5071655;28;20205;-62
2022/02/21 02:31:07;;;;;;;3.83;0.90;;;11.80;99.90;;;;;;5082555;28;20232;-60
2022/02/21 02:33:34;;;;;;;5.07;0.60;;;11.80;99.90;;;;;;5092373;28;20200;-59
2022/02/21 02:36:01;;;;;;;1.90;0.90;;;11.70;99.90;;;;;;5092158;28;20291;-59
2022/02/21 02:38:27;;;;;;;2.07;0.93;;;11.60;99.90;;;;;;5091686;28;20314;-60
2022/02/21 02:40:56;;;;;;;3.33;0.70;;;11.60;99.90;;;;;;5091992;28;20231;-60
2022/02/21 02:43:23;;;;;;;2.27;0.77;;;11.60;99.90;;;;;;5092042;28;20212;-59
2022/02/21 02:45:50;;;;;;;1.10;0.50;;;11.60;99.90;;;;;;5091768;28;20241;-59
2022/02/21 02:48:17;;;;;;;1.70;0.60;;;11.70;99.90;;;;;;5091953;28;20207;-59
2022/02/21 02:50:43;;;;;;;1.33;0.40;;;11.70;99.90;;;;;;5092036;28;20273;-59
2022/02/21 02:53:10;;;;;;;1.40;0.70;;;11.80;99.90;;;;;;5091954;28;20204;-60
2022/02/21 02:55:37;;;;;;;2.20;0.93;;;11.70;99.90;;;;;;5091992;28;20208;-60
2022/02/21 02:58:05;;;;;;;1.60;0.60;;;11.80;99.90;;;;;;5091599;28;20209;-60
2022/02/21 03:00:32;;;;;;;2.63;0.60;;;11.70;99.90;;;;;;5091738;28;20204;-60
2022/02/21 03:02:58;;;;;;;1.97;0.50;;;11.70;99.90;;;;;;5091774;28;20597;-60
2022/02/21 03:05:26;;;;;;;1.80;0.67;;;11.60;99.90;;;;;;5092034;28;20204;-60
2022/02/21 03:07:52;;;;;;;4.03;0.73;;;11.60;99.90;;;;;;5091804;28;20227;-60
2022/02/21 03:10:19;;;;;;;2.20;1.00;;;11.60;99.90;;;;;;5091757;28;20669;-60
2022/02/21 03:12:46;;;;;;;2.40;0.80;;;11.60;99.90;;;;;;5092322;28;20281;-60
2022/02/21 03:15:14;;;;;;;1.83;0.90;;;11.50;99.90;;;;;;5092447;28;20204;-60
2022/02/21 03:17:41;;;;;;;2.23;0.60;;;11.50;99.90;;;;;;5095371;28;20254;-60
2022/02/21 03:20:10;;;;;;;1.40;0.40;;;11.50;99.90;;;;;;5095493;28;20228;-60
2022/02/21 03:22:36;;;;;;;1.27;0.50;;;11.40;99.90;;;;;;5095192;28;20227;-60
2022/02/21 03:25:03;;;;;;;2.70;0.80;;;11.40;99.90;;;;;;5095398;28;20631;-60
2022/02/21 03:27:30;;;;;;;2.90;0.70;;;11.40;99.90;;;;;;5094878;28;20208;-60
2022/02/21 03:29:57;;;;;;;1.93;0.57;;;11.40;99.90;;;;;;5095336;28;20258;-60
2022/02/21 03:32:25;;;;;;;1.07;0.40;;;11.40;99.90;;;;;;5095008;28;20315;-60
2022/02/21 03:34:51;;;;;;;1.37;0.47;;;11.40;99.90;;;;;;5095224;28;20253;-59
2022/02/21 03:37:18;;;;;;;3.20;0.53;;;11.40;99.90;;;;;;5094593;28;20261;-60
2022/02/21 03:39:45;;;;;;;4.40;0.87;;;11.50;99.90;;;;;;5095041;28;20223;-60
2022/02/21 03:42:12;;;;;;;2.60;0.70;;;11.50;99.90;;;;;;5094949;28;20228;-60
2022/02/21 03:44:40;;;;;;;2.13;0.57;;;11.40;99.90;;;;;;5095194;28;20215;-59
2022/02/21 03:47:07;;;;;;;2.57;0.87;;;10.90;99.90;;;;;;5094703;28;20211;-59
2022/02/21 03:49:35;;;;;;;2.23;0.80;;;10.00;99.90;;;;;;5095024;28;20208;-60
2022/02/21 03:52:02;;;;;;;1.73;0.43;;;9.10;99.90;;;;;;5094747;28;20320;-59
2022/02/21 03:54:29;;;;;;;2.37;0.70;;;8.40;99.90;;;;;;5094715;28;20231;-59
2022/02/21 03:56:55;;;;;;;1.70;0.60;;;8.00;99.90;;;;;;5094789;28;20208;-58
2022/02/21 03:59:22;;;;;;;3.27;0.60;;;7.70;99.90;;;;;;5095019;28;20235;-57
2022/02/21 04:01:49;;;;;;;3.20;0.70;;;7.30;99.90;;;;;;5094945;28;20220;-57
2022/02/21 04:04:16;;;;;;;3.67;0.90;;;7.00;99.90;;;;;;5095313;28;20295;-58
2022/02/21 04:06:44;;;;;;;3.50;0.90;;;6.80;99.90;;;;;;5095446;28;20249;-58
2022/02/21 04:09:12;;;;;;;2.93;0.97;;;6.60;99.90;;;;;;5095611;28;20725;-59
2022/02/21 04:11:39;;;;;;;3.57;0.90;;;6.50;99.90;;;;;;5095159;28;20320;-58
2022/02/21 04:14:06;;;;;;;1.73;1.00;;;6.50;99.90;;;;;;5094654;28;20253;-58
2022/02/21 04:16:34;;;;;;;2.53;0.67;;;6.40;99.90;;;;;;5094429;28;20234;-58
2022/02/21 04:19:02;;;;;;;2.50;0.93;;;6.20;99.90;;;;;;5094566;28;20220;-59
2022/02/21 04:21:29;;;;;;;4.53;1.00;;;6.10;99.90;;;;;;5094180;28;20224;-58
2022/02/21 04:23:57;;;;;;;3.10;1.10;;;6.20;99.90;;;;;;5094433;28;20235;-59
2022/02/21 04:26:24;;;;;;;1.83;0.47;;;6.20;99.90;;;;;;5093926;28;20755;-59
2022/02/21 04:28:51;;;;;;;1.47;0.80;;;6.20;99.90;;;;;;5094068;28;20200;-59
2022/02/21 04:31:18;;;;;;;2.67;0.90;;;6.20;99.90;;;;;;5093897;28;20646;-59
2022/02/21 04:33:44;;;;;;;2.23;0.90;;;6.20;99.90;;;;;;5094307;28;20208;-59
2022/02/21 04:36:12;;;;;;;2.97;0.70;;;6.20;99.90;;;;;;5093923;28;20247;-59
2022/02/21 04:38:39;;;;;;;3.20;1.20;;;6.30;99.90;;;;;;5093836;28;20204;-59
2022/02/21 04:41:07;;;;;;;1.77;0.70;;;6.30;99.90;;;;;;5093985;28;20228;-59
2022/02/21 04:43:34;;;;;;;3.43;1.07;;;6.40;99.90;;;;;;5094055;28;20204;-59
2022/02/21 04:46:01;;;;;;;2.43;0.90;;;6.40;99.90;;;;;;5093673;28;20210;-59
2022/02/21 04:48:29;;;;;;;3.03;0.80;;;6.50;99.90;;;;;;5093459;28;20201;-60
2022/02/21 04:50:56;;;;;;;2.73;0.87;;;6.60;99.90;;;;;;5093586;28;20297;-59
2022/02/21 04:53:23;;;;;;;3.50;1.00;;;6.60;99.90;;;;;;5094257;28;20208;-60
2022/02/21 04:55:51;;;;;;;2.73;1.20;;;6.70;99.90;;;;;;5093511;28;20722;-59
2022/02/21 04:58:19;;;;;;;2.27;0.90;;;6.70;99.90;;;;;;5093308;28;20570;-61
2022/02/21 05:00:46;;;;;;;1.47;0.90;;;6.80;99.90;;;;;;5093484;28;20282;-59
2022/02/21 05:03:13;;;;;;;5.07;1.07;;;7.00;99.90;;;;;;5093465;28;20208;-59
2022/02/21 05:05:39;;;;;;;3.57;1.30;;;7.00;99.90;;;;;;5093794;28;20234;-59
2022/02/21 05:08:06;;;;;;;5.03;1.00;;;7.00;99.90;;;;;;5093281;28;20707;-59
2022/02/21 05:10:33;;;;;;;6.10;1.20;;;7.10;99.90;;;;;;5093270;28;20196;-59
2022/02/21 05:12:59;;;;;;;6.33;1.20;;;7.10;99.90;;;;;;5093587;28;20242;-59
2022/02/21 05:15:28;;;;;;;4.10;1.40;;;7.20;99.90;;;;;;5093343;28;20269;-59
2022/02/21 05:17:55;;;;;;;6.93;1.00;;;7.10;99.90;;;;;;5092832;28;20204;-59
2022/02/21 05:20:22;;;;;;;8.37;1.40;;;7.10;99.90;;;;;;5093230;28;20224;-59
2022/02/21 05:22:49;;;;;;;6.33;1.30;;;7.10;99.90;;;;;;5093049;28;20236;-59
2022/02/21 05:25:15;;;;;;;3.50;1.13;;;7.20;99.90;;;;;;5093199;28;20205;-59
2022/02/21 05:27:42;;;;;;;7.80;1.60;;;7.20;99.90;;;;;;5092682;28;20212;-59
2022/02/21 05:30:13;;;;;;;6.23;1.30;;;7.20;99.90;;;;;;5093113;28;20204;-59
2022/02/21 05:32:41;;;;;;;4.87;1.40;;;7.30;99.90;;;;;;5093238;28;20226;-59
2022/02/21 05:35:08;;;;;;;8.33;3.17;;;7.20;99.90;;;;;;5093041;28;20211;-59
2022/02/21 05:37:35;;;;;;;5.00;1.73;;;7.20;99.90;;;;;;5092036;28;20212;-59
2022/02/21 05:40:02;;;;;;;4.23;1.40;;;7.30;99.90;;;;;;5092483;28;20224;-59
2022/02/21 05:42:28;;;;;;;7.90;2.00;;;7.30;99.90;;;;;;5093128;28;20247;-59
2022/02/21 05:44:55;;;;;;;7.90;2.10;;;7.30;99.90;;;;;;5092618;28;20697;-59
2022/02/21 05:47:22;;;;;;;9.80;1.93;;;7.30;99.90;;;;;;5092407;28;20664;-59
2022/02/21 05:49:50;;;;;;;7.50;2.03;;;7.30;99.90;;;;;;5092694;28;20278;-59
2022/02/21 05:52:16;;;;;;;9.40;2.30;;;7.30;99.90;;;;;;5092509;28;20224;-59
2022/02/21 05:54:43;;;;;;;6.77;1.83;;;7.30;99.90;;;;;;5092673;28;20204;-59
2022/02/21 05:57:10;;;;;;;7.30;1.50;;;7.40;99.90;;;;;;5092231;28;20212;-59
2022/02/21 05:59:36;;;;;;;6.37;1.93;;;7.40;99.90;;;;;;5092215;28;20277;-59
2022/02/21 06:02:03;;;;;;;8.33;1.90;;;7.40;99.90;;;;;;5092418;28;20224;-59
2022/02/21 06:04:30;;;;;;;6.23;1.90;;;7.40;99.90;;;;;;5092243;28;20568;-59
2022/02/21 06:06:58;;;;;;;7.27;2.10;;;7.40;99.90;;;;;;5092194;28;20200;-59
2022/02/21 06:09:25;;;;;;;7.77;2.30;;;7.40;99.90;;;;;;5092515;28;20200;-59
2022/02/21 06:11:51;;;;;;;6.83;1.90;;;7.30;99.90;;;;;;5092219;28;20270;-59
2022/02/21 06:14:18;;;;;;;6.83;1.97;;;7.40;99.90;;;;;;5092506;28;20247;-59
2022/02/21 06:16:45;;;;;;;7.00;1.50;;;7.30;99.90;;;;;;5092281;28;20204;-59
2022/02/21 06:19:11;;;;;;;8.03;2.30;;;7.30;99.90;;;;;;5091938;28;20224;-59
2022/02/21 06:21:38;;;;;;;8.20;2.93;;;7.40;99.90;;;;;;5092718;28;20316;-59
2022/02/21 06:24:07;;;;;;;5.53;2.13;;;7.40;99.90;;;;;;5092132;28;20208;-59
2022/02/21 06:26:33;;;;;;;8.77;1.93;;;7.40;99.90;;;;;;5091974;28;20688;-59
2022/02/21 06:29:00;;;;;;;6.20;1.60;;;7.40;99.90;;;;;;5091688;28;20255;-59
2022/02/21 06:31:27;;;;;;;6.30;2.10;;;7.40;99.90;;;;;;5092133;28;20647;-59
2022/02/21 06:33:53;;;;;;;9.50;2.53;;;7.40;99.90;;;;;;5092864;28;20207;-59
2022/02/21 06:36:20;;;;;;;7.60;1.73;;;7.50;99.90;;;;;;5092030;28;20825;-58
2022/02/21 06:38:47;;;;;;;11.00;3.13;;;7.50;99.90;;;;;;5091655;28;20208;-58
2022/02/21 06:41:15;;;;;;;8.17;2.10;;;7.50;99.90;;;;;;5091603;28;20228;-58
2022/02/21 06:43:42;;;;;;;15.27;2.67;;;7.50;99.90;;;;;;5091805;28;20208;-58
2022/02/21 06:46:09;;;;;;;8.43;2.27;;;7.50;99.90;;;;;;5091993;28;20287;-58
2022/02/21 06:48:36;;;;;;;9.33;2.73;;;7.60;99.90;;;;;;5091712;28;20231;-58
2022/02/21 06:51:03;;;;;;;7.43;2.33;;;7.60;99.90;;;;;;5095604;28;20224;-58
2022/02/21 06:53:30;;;;;;;9.73;2.30;;;7.50;99.90;;;;;;5095816;28;20212;-58
2022/02/21 06:55:56;;;;;;;8.30;2.40;;;7.50;99.90;;;;;;5095688;28;20254;-58
2022/02/21 06:58:24;;;;;;;11.10;2.57;;;7.40;99.90;;;;;;5095703;28;20203;-58
2022/02/21 07:00:51;;;;;;;7.53;2.27;;;7.40;99.90;;;;;;5095804;28;20231;-59
2022/02/21 07:03:18;;;;;;;8.03;1.93;;;7.30;99.90;;;;;;5096372;28;20668;-58
2022/02/21 07:05:44;;;;;;;9.37;2.50;;;7.30;99.90;;;;;;5095624;28;20292;-58
2022/02/21 07:08:12;;;;;;;7.53;1.73;;;7.30;99.90;;;;;;5095346;28;20204;-59
2022/02/21 07:10:39;;;;;;;11.07;2.60;;;7.40;99.90;;;;;;5095266;28;20246;-59
2022/02/21 07:13:06;;;;;;;7.07;2.10;;;7.40;99.90;;;;;;5095772;28;20261;-59
2022/02/21 07:15:34;;;;;;;9.73;2.13;;;7.50;99.90;;;;;;5095677;28;20200;-59
2022/02/21 07:18:00;;;;;;;6.20;2.13;;;7.40;99.90;;;;;;5096027;28;20208;-59
2022/02/21 07:20:27;;;;;;;9.93;2.20;;;7.50;99.90;;;;;;5095768;28;20224;-59
2022/02/21 07:22:54;;;;;;;10.80;2.10;;;7.60;99.90;;;;;;5095570;28;20587;-59
2022/02/21 07:25:21;;;;;;;7.97;2.50;;;7.50;99.90;;;;;;5095594;28;20212;-60
2022/02/21 07:27:49;;;;;;;6.63;2.57;;;7.50;99.90;;;;;;5095371;28;20216;-59
2022/02/21 07:30:18;;;;;;;9.77;2.40;;;7.50;99.90;;;;;;5095726;28;20200;-58
2022/02/21 07:32:48;;;;;;;9.63;2.20;;;7.40;99.90;;;;;;5095224;28;20227;-58
2022/02/21 07:35:15;;;;;;;5.67;1.83;;;7.30;99.90;;;;;;5095386;28;20770;-58
2022/02/21 07:37:42;;;;;;;11.87;3.30;;;7.40;99.90;;;;;;5095305;28;20212;-58
2022/02/21 07:40:10;;;;;;;9.70;2.03;;;7.50;99.90;;;;;;5095413;28;20227;-59
2022/02/21 07:42:39;;;;;;;8.70;2.93;;;7.50;99.90;;;;;;5095601;28;20601;-58
2022/02/21 07:45:07;;;;;;;8.97;2.57;;;7.50;99.90;;;;;;5095368;28;20212;-59
2022/02/21 07:47:41;;;;;;;9.03;2.30;;;7.50;99.90;;;;;;5094895;28;20237;-59
2022/02/21 07:50:10;;;;;;;8.63;2.40;;;7.40;99.90;;;;;;5094925;28;20284;-59
2022/02/21 07:52:36;;;;;;;10.27;2.60;;;7.40;99.90;;;;;;5094993;28;20228;-58
2022/02/21 07:55:04;;;;;;;8.67;2.37;;;7.40;99.90;;;;;;5094771;28;20209;-58
2022/02/21 07:57:30;;;;;;;7.50;2.10;;;7.40;99.90;;;;;;5094835;28;20233;-58
2022/02/21 07:59:57;;;;;;;10.73;2.27;;;7.40;99.90;;;;;;5094404;28;20220;-58
2022/02/21 08:02:24;;;;;;;10.63;2.53;;;7.40;99.90;;;;;;5093697;28;20228;-58
2022/02/21 08:04:51;;;;;;;12.40;2.43;;;7.40;99.90;;;;;;5094432;28;20664;-58
2022/02/21 08:07:19;;;;;;;13.87;2.40;;;7.50;99.90;;;;;;5094423;28;20253;-59
2022/02/21 08:09:45;;;;;;;7.97;1.93;;;7.50;99.90;;;;;;5094990;28;20215;-58
2022/02/21 08:12:12;;;;;;;12.90;2.70;;;7.50;99.90;;;;;;5094707;28;20281;-58
2022/02/21 08:14:39;;;;;;;11.97;2.57;;;7.70;99.90;;;;;;5094337;28;20208;-58
2022/02/21 08:17:06;;;;;;;7.90;2.50;;;7.70;99.90;;;;;;5094279;28;20212;-59
2022/02/21 08:19:32;;;;;;;14.60;3.07;;;7.70;99.90;;;;;;5094268;28;20204;-58
2022/02/21 08:21:59;;;;;;;10.33;2.77;;;7.80;99.90;;;;;;5094428;28;20230;-57
2022/02/21 08:24:27;;;;;;;11.90;2.73;;;8.10;99.90;;;;;;5094150;28;20208;-57
2022/02/21 08:26:54;;;;;;;8.63;2.27;;;8.20;99.90;;;;;;5093809;28;20631;-58
2022/02/21 08:29:21;;;;;;;7.83;2.27;;;8.40;99.90;;;;;;5094157;28;20240;-58
2022/02/21 08:31:48;;;;;;;12.53;2.37;;;8.60;99.90;;;;;;5094217;28;20234;-57
2022/02/21 08:34:15;;;;;;;11.20;2.60;;;8.60;99.90;;;;;;5094709;28;20204;-57
2022/02/21 08:36:42;;;;;;;10.27;2.70;;;8.80;99.90;;;;;;5094680;28;20291;-57
2022/02/21 08:39:09;;;;;;;10.73;3.80;;;9.00;99.90;;;;;;5094167;28;20204;-57
2022/02/21 08:41:37;;;;;;;10.87;2.73;;;9.20;99.90;;;;;;5094150;28;20232;-57
2022/02/21 08:44:04;;;;;;;12.93;4.20;;;9.50;99.90;;;;;;5094217;28;20265;-57
2022/02/21 08:46:30;;;;;;;13.57;3.00;;;9.70;99.40;;;;;;5093998;28;20733;-57
2022/02/21 08:48:58;;;;;;;9.37;2.43;;;9.90;99.10;;;;;;5093936;28;20622;-58
2022/02/21 08:51:25;;;;;;;7.27;2.43;;;10.00;98.00;;;;;;5093674;28;20216;-58
2022/02/21 08:53:52;;;;;;;8.07;2.23;;;10.10;98.50;;;;;;5093757;28;20216;-57
2022/02/21 08:56:19;;;;;;;7.50;2.17;;;10.20;97.80;;;;;;5093647;28;20690;-58
2022/02/21 08:58:47;;;;;;;11.53;2.73;;;10.30;98.10;;;;;;5093506;28;20212;-57
2022/02/21 09:01:14;;;;;;;15.40;2.50;;;10.30;97.70;;;;;;5093688;28;20224;-57
2022/02/21 09:03:41;;;;;;;11.67;2.50;;;10.40;97.50;;;;;;5094328;28;20208;-58
2022/02/21 09:06:08;;;;;;;17.47;8.83;;;10.40;97.50;;;;;;5093644;28;20250;-56
2022/02/21 09:08:35;;;;;;;10.93;2.77;;;10.30;97.70;;;;;;5093135;28;20575;-56
2022/02/21 09:11:02;;;;;;;11.30;2.43;;;10.20;98.20;;;;;;5117811;22;20334;-55
2022/02/21 09:13:29;;;;;;;10.10;2.67;;;10.10;98.30;;;;;;5106190;28;20206;-55
2022/02/21 09:15:57;;;;;;;8.37;2.47;;;10.20;98.70;;;;;;5112372;28;20662;-55
2022/02/21 09:18:24;;;;;;;10.37;2.37;;;10.40;98.60;;;;;;5113491;28;20268;-55
2022/02/21 09:20:52;;;;;;;8.00;2.53;;;10.20;97.80;;;;;;5113536;28;20310;-57
2022/02/21 09:23:19;;;;;;;11.53;2.57;;;10.20;98.10;;;;;;5113456;28;20203;-55
2022/02/21 09:25:46;;;;;;;8.97;2.57;;;10.10;97.50;;;;;;5113292;28;20207;-55
2022/02/21 09:28:13;;;;;;;12.07;3.23;;;10.00;97.70;;;;;;5113111;28;20239;-55
2022/02/21 09:30:40;;;;;;;8.33;2.30;;;10.00;98.00;;;;;;5113353;28;20200;-56
2022/02/21 09:33:08;;;;;;;7.97;2.00;;;10.10;97.90;;;;;;5113157;28;20228;-56
2022/02/21 09:35:34;;;;;;;4.57;1.87;;;10.30;97.60;;;;;;5113126;28;20556;-56
2022/02/21 09:38:01;;;;;;;9.70;2.50;;;10.40;97.10;;;;;;5112839;28;20563;-57
2022/02/21 09:40:28;;;;;;;5.93;1.73;;;10.50;96.90;;;;;;5113130;28;20268;-56
2022/02/21 09:42:59;;;;;;;9.23;2.13;;;10.60;96.80;;;;;;5113132;28;20228;-56
2022/02/21 09:45:28;;;;;;;7.70;1.80;;;10.60;96.80;;;;;;5113178;28;20200;-56
2022/02/21 09:47:56;;;;;;;8.50;2.17;;;10.70;96.20;;;;;;5112555;28;20247;-57
2022/02/21 09:50:26;;;;;;;6.03;2.10;;;10.70;96.10;;;;;;5112878;28;20603;-56
2022/02/21 09:52:54;;;;;;;10.37;2.07;;;10.80;96.10;;;;;;5112503;28;20262;-56
2022/02/21 09:55:21;;;;;;;6.60;2.30;;;11.00;96.80;;;;;;5112831;28;20207;-56
2022/02/21 09:57:48;;;;;;;5.47;2.07;;;10.90;96.10;;;;;;5112148;28;20204;-57
2022/02/21 10:00:15;;;;;;;7.47;2.20;;;10.90;96.20;;;;;;5112660;28;20208;-55
2022/02/21 10:02:45;;;;;;;5.40;1.80;;;10.90;96.20;;;;;;5112590;28;20273;-55
2022/02/21 10:05:17;;;;;;;4.23;1.60;;;11.10;95.90;;;;;;5112665;28;20207;-55
2022/02/21 10:07:46;;;;;;;8.27;2.43;;;11.10;95.70;;;;;;5112386;28;20208;-56
2022/02/21 10:10:15;;;;;;;6.63;2.20;;;11.00;95.30;;;;;;5112837;28;20211;-55
2022/02/21 10:12:49;;;;;;;5.93;1.80;;;10.80;95.40;;;;;;5112289;28;20238;-55
2022/02/21 10:15:19;;;;;;;5.67;2.07;;;10.80;95.50;;;;;;5112291;28;20210;-56
2022/02/21 10:17:46;;;;;;;10.20;1.73;;;10.90;96.10;;;;;;5112286;28;20204;-56
2022/02/21 10:20:14;;;;;;;8.07;1.83;;;10.90;96.20;;;;;;5112380;28;20670;-55
2022/02/21 10:22:41;;;;;;;6.10;1.97;;;10.50;96.40;;;;;;5112444;28;20224;-55
2022/02/21 10:25:21;;;;;;;7.40;2.00;;;10.30;97.20;;;;;;5111944;28;20207;-55
2022/02/21 10:27:48;;;;;;;10.50;2.07;;;10.00;97.60;;;;;;5112198;28;20230;-55
2022/02/21 10:30:19;;;;;;;5.73;1.70;;;10.20;98.10;;;;;;5112210;28;20207;-55
2022/02/21 10:32:47;;;;;;;7.27;1.90;;;10.60;97.40;;;;;;5112365;28;20234;-55
2022/02/21 10:35:16;;;;;;;11.83;4.40;;;11.00;97.40;;;;;;5112439;28;20298;-55
2022/02/21 10:37:45;;;;;;;4.83;1.70;;;11.30;96.70;;;;;;5112006;28;20203;-56
2022/02/21 10:40:14;;;;;;;6.40;1.93;;;11.50;95.50;;;;;;5112192;28;20219;-55
2022/02/21 10:42:44;;;;;;;7.40;2.10;;;11.50;94.80;;;;;;5112227;28;20227;-56
2022/02/21 10:45:14;;;;;;;5.97;1.70;;;11.20;94.20;;;;;;5112378;28;20659;-55
2022/02/21 10:47:42;;;;;;;3.60;1.40;;;10.70;93.80;;;;;;5112320;28;20298;-55
2022/02/21 10:50:10;;;;;;;4.30;1.77;;;10.40;93.60;;;;;;5112306;28;20214;-55
2022/02/21 10:52:39;;;;;;;3.60;1.30;;;10.50;93.10;;;;;;5112182;28;20827;-55
2022/02/21 10:55:09;;;;;;;4.23;1.27;;;10.40;92.90;;;;;;5112313;28;20212;-55
2022/02/21 10:57:40;;;;;;;4.77;1.60;;;10.50;93.10;;;;;;5112074;28;20207;-55
2022/02/21 11:00:10;;;;;;;6.57;1.57;;;10.60;93.10;;;;;;5112297;28;20207;-55
2022/02/21 11:02:40;;;;;;;6.30;1.93;;;10.70;92.80;;;;;;5112205;28;20314;-55
2022/02/21 11:05:09;;;;;;;5.47;2.00;;;10.80;92.60;;;;;;5112033;28;20207;-55
2022/02/21 11:07:38;;;;;;;5.67;1.80;;;10.80;92.50;;;;;;5111765;28;20656;-56
2022/02/21 11:10:07;;;;;;;4.87;1.70;;;10.80;91.80;;;;;;5111733;28;20290;-56
2022/02/21 11:12:37;;;;;;;5.43;2.60;;;10.90;90.80;;;;;;5111654;28;20231;-56
2022/02/21 11:15:05;;;;;;;6.30;1.73;;;11.10;91.40;;;;;;5112021;28;20211;-56
2022/02/21 11:17:36;;;;;;;5.17;1.40;;;11.30;90.50;;;;;;5111543;28;20211;-56
2022/02/21 11:20:04;;;;;;;3.87;1.50;;;11.50;90.50;;;;;;5111846;28;20295;-56
2022/02/21 11:22:33;;;;;;;7.57;1.47;;;11.60;88.80;;;;;;5111492;28;20224;-56
2022/02/21 11:25:09;;;;;;;3.73;1.13;;;11.50;88.30;;;;;;5112048;28;20361;-56
2022/02/21 11:27:45;;;;;;;2.60;1.20;;;11.50;88.80;;;;;;5111826;28;20290;-57
2022/02/21 11:30:16;;;;;;;4.53;1.50;;;11.60;88.70;;;;;;5112356;28;20211;-56
2022/02/21 11:33:04;;;;;;;4.47;1.80;;;11.70;88.60;;;;;;5111865;28;20706;-56
2022/02/21 11:35:31;;;;;;;3.83;1.10;;;11.60;89.30;;;;;;5111998;28;20211;-56
2022/02/21 11:38:16;;;;;;;4.33;1.37;;;11.30;91.20;;;;;;5114415;28;20256;-56
2022/02/21 11:40:54;;;;;;;3.13;1.20;;;10.90;93.60;;;;;;5115198;28;20260;-56
2022/02/21 11:43:26;;;;;;;5.33;1.30;;;10.60;94.90;;;;;;5115229;28;20670;-56
2022/02/21 11:45:54;;;;;;;3.33;1.50;;;10.50;96.00;;;;;;5115319;28;20208;-56
2022/02/21 11:48:22;;;;;;;4.20;1.00;;;10.30;97.10;;;;;;5115284;28;20207;-56
2022/02/21 11:50:57;;;;;;;4.53;1.50;;;10.00;96.30;;;;;;5115008;28;20203;-56
2022/02/21 11:53:26;;;;;;;4.60;1.53;;;9.90;96.30;;;;;;5114880;28;20203;-56
2022/02/21 11:55:52;;;;;;;3.60;1.20;;;9.90;96.80;;;;;;5114936;28;20208;-56
2022/02/21 11:58:39;;;;;;;3.87;1.30;;;10.10;95.70;;;;;;5114822;28;20294;-57
2022/02/21 12:01:19;;;;;;;3.43;1.10;;;10.40;95.70;;;;;;5114738;28;20598;-57
2022/02/21 12:04:17;;;;;;;6.17;1.67;;;10.50;96.00;;;;;;5114889;28;20213;-56
2022/02/21 12:07:00;;;;;;;4.23;1.57;;;10.50;96.00;;;;;;5115092;28;20215;-56
2022/02/21 12:09:27;;;;;;;4.47;1.20;;;10.40;95.90;;;;;;5114560;28;20810;-57
2022/02/21 12:12:23;;;;;;;4.50;1.60;;;10.30;96.50;;;;;;5114550;28;20231;-55
2022/02/21 12:15:10;;;;;;;4.67;1.70;;;10.40;96.40;;;;;;5114531;28;20264;-55
2022/02/21 12:17:37;;;;;;;6.83;1.77;;;10.50;96.30;;;;;;5114485;28;20203;-55
2022/02/21 12:20:33;;;;;;;4.00;1.50;;;10.80;96.10;;;;;;5114500;28;20222;-55
2022/02/21 12:23:20;;;;;;;8.33;2.53;;;11.00;95.80;;;;;;5114192;28;20686;-55
2022/02/21 12:26:18;;;;;;;6.37;1.70;;;11.30;95.60;;;;;;5114537;28;20211;-56
2022/02/21 12:28:45;;;;;;;6.40;1.60;;;11.30;94.70;;;;;;5114066;28;20302;-55
2022/02/21 12:31:25;;;;;;;4.93;1.50;;;11.20;94.50;;;;;;5114273;28;20230;-55
2022/02/21 12:33:57;;;;;;;8.63;1.87;;;11.20;94.80;;;;;;5114523;28;20203;-56
2022/02/21 12:36:25;;;;;;;6.33;1.67;;;11.30;94.50;;;;;;5114418;28;20290;-56
2022/02/21 12:38:59;;;;;;;6.60;1.73;;;11.40;94.10;;;;;;5114145;28;20220;-55
2022/02/21 12:41:31;;;;;;;6.30;2.07;;;11.50;94.10;;;;;;5113942;28;20227;-55
2022/02/21 12:44:00;;;;;;;7.93;1.93;;;11.40;94.10;;;;;;5114186;28;20275;-56
2022/02/21 12:46:29;;;;;;;8.50;1.60;;;11.20;94.00;;;;;;5113894;28;20689;-56
2022/02/21 12:48:57;;;;;;;4.13;1.50;;;11.10;93.20;;;;;;5113472;28;20214;-56
2022/02/21 12:51:28;;;;;;;5.13;1.40;;;11.00;92.40;;;;;;5114105;28;20313;-56
2022/02/21 12:54:03;;;;;;;4.10;1.47;;;10.90;92.40;;;;;;5113796;28;20207;-56
2022/02/21 12:56:43;;;;;;;3.90;1.60;;;11.00;92.10;;;;;;5113785;28;20211;-56